createdAt,value
2018-08-24T00:01:40.003Z,19.60
2018-08-24T00:04:09.702Z,19.50
2018-08-24T00:06:39.963Z,19.40
2018-08-24T00:09:11.106Z,19.30
2018-08-24T00:11:40.134Z,19.30
2018-08-24T00:14:09.287Z,19.20
2018-08-24T00:16:42.069Z,19.10
2018-08-24T00:19:11.968Z,19.00
2018-08-24T00:21:40.601Z,18.90
2018-08-24T00:24:10.480Z,18.80
2018-08-24T00:26:39.153Z,18.80
2018-08-24T00:29:09.417Z,18.70
2018-08-24T00:31:38.725Z,18.60
2018-08-24T00:34:07.555Z,18.70
2018-08-24T00:36:36.163Z,18.70
2018-08-24T00:39:06.986Z,18.70
2018-08-24T00:41:35.601Z,18.80
2018-08-24T00:44:04.254Z,18.90
2018-08-24T00:46:32.937Z,19.00
2018-08-24T00:49:01.599Z,19.10
2018-08-24T00:51:30.220Z,19.10
2018-08-24T00:53:58.807Z,19.20
2018-08-24T00:56:27.368Z,19.20
2018-08-24T00:58:55.978Z,19.20
2018-08-24T01:01:24.595Z,19.20
2018-08-24T01:03:53.181Z,19.10
2018-08-24T01:06:24.697Z,19.10
2018-08-24T01:08:53.298Z,19.10
2018-08-24T01:11:26.089Z,19.10
2018-08-24T01:13:54.637Z,19.10
2018-08-24T01:16:28.381Z,19.20
2018-08-24T01:18:57.978Z,19.20
2018-08-24T01:21:26.561Z,19.20
2018-08-24T01:23:55.156Z,19.10
2018-08-24T01:26:24.824Z,19.00
2018-08-24T01:28:53.950Z,19.00
2018-08-24T01:31:22.568Z,19.00
2018-08-24T01:33:51.145Z,19.10
2018-08-24T01:36:19.778Z,19.10
2018-08-24T01:38:48.289Z,19.10
2018-08-24T01:41:16.921Z,19.20
2018-08-24T01:43:45.447Z,19.30
2018-08-24T01:46:15.260Z,19.40
2018-08-24T01:48:43.842Z,19.50
2018-08-24T01:51:17.635Z,19.60
2018-08-24T01:53:46.255Z,19.50
2018-08-24T01:56:14.985Z,19.50
2018-08-24T01:58:43.585Z,19.50
2018-08-24T02:01:12.276Z,19.40
2018-08-24T02:03:40.830Z,19.50
2018-08-24T02:06:09.464Z,19.50
2018-08-24T02:08:38.480Z,19.50
2018-08-24T02:11:12.341Z,19.50
2018-08-24T02:13:47.190Z,19.50
2018-08-24T02:16:15.809Z,19.50
2018-08-24T02:18:49.762Z,19.60
2018-08-24T02:21:23.576Z,19.60
2018-08-24T02:23:52.152Z,19.60
2018-08-24T02:26:20.803Z,19.60
2018-08-24T02:28:49.553Z,19.50
2018-08-24T02:31:18.206Z,19.50
2018-08-24T02:33:46.642Z,19.50
2018-08-24T02:36:15.231Z,19.40
2018-08-24T02:38:43.812Z,19.40
2018-08-24T02:41:12.392Z,19.40
2018-08-24T02:43:40.944Z,19.50
2018-08-24T02:46:10.097Z,19.60
2018-08-24T02:48:38.711Z,19.60
2018-08-24T02:51:07.372Z,19.70
2018-08-24T02:53:35.983Z,19.70
2018-08-24T02:56:04.542Z,19.80
2018-08-24T02:58:33.072Z,19.60
2018-08-24T03:01:01.709Z,19.50
2018-08-24T03:03:30.284Z,19.50
2018-08-24T03:05:58.890Z,19.40
2018-08-24T03:08:27.568Z,19.40
2018-08-24T03:10:56.073Z,19.40
2018-08-24T03:13:24.657Z,19.40
2018-08-24T03:15:53.269Z,19.40
2018-08-24T03:18:21.863Z,19.40
2018-08-24T03:20:51.480Z,19.50
2018-08-24T03:23:20.084Z,19.40
2018-08-24T03:25:48.669Z,19.40
2018-08-24T03:28:17.214Z,19.40
2018-08-24T03:30:45.805Z,19.30
2018-08-24T03:33:14.310Z,19.20
2018-08-24T03:35:42.903Z,19.20
2018-08-24T03:38:11.500Z,19.20
2018-08-24T03:40:40.069Z,19.20
2018-08-24T03:43:08.707Z,19.30
2018-08-24T03:45:37.346Z,19.40
2018-08-24T03:48:06.000Z,19.40
2018-08-24T03:50:34.835Z,19.40
2018-08-24T03:53:03.509Z,19.50
2018-08-24T03:55:35.359Z,19.60
2018-08-24T03:58:05.105Z,19.60
2018-08-24T04:00:33.693Z,19.50
2018-08-24T04:03:02.231Z,19.60
2018-08-24T04:05:32.831Z,19.60
2018-08-24T04:08:01.467Z,19.70
2018-08-24T04:10:30.190Z,19.80
2018-08-24T04:12:58.743Z,19.90
2018-08-24T04:15:28.392Z,19.90
2018-08-24T04:17:57.183Z,19.90
2018-08-24T04:20:25.847Z,20.00
2018-08-24T04:22:54.452Z,20.00
2018-08-24T04:25:23.071Z,20.10
2018-08-24T04:27:51.629Z,20.20
2018-08-24T04:30:20.214Z,20.30
2018-08-24T04:32:48.825Z,20.30
2018-08-24T04:35:17.390Z,20.20
2018-08-24T04:37:46.013Z,20.20
2018-08-24T04:40:15.714Z,20.30
2018-08-24T04:42:44.295Z,20.40
2018-08-24T04:45:12.969Z,20.40
2018-08-24T04:47:41.584Z,20.30
2018-08-24T04:50:10.203Z,20.20
2018-08-24T04:52:38.816Z,20.20
2018-08-24T04:55:07.397Z,20.10
2018-08-24T04:57:35.970Z,20.10
2018-08-24T05:00:04.587Z,20.00
2018-08-24T05:02:33.164Z,20.10
2018-08-24T05:05:02.015Z,20.10
2018-08-24T05:07:30.720Z,20.20
2018-08-24T05:09:59.681Z,20.30
2018-08-24T05:12:32.165Z,20.30
2018-08-24T05:15:01.079Z,20.30
2018-08-24T05:17:30.499Z,20.30
2018-08-24T05:20:00.362Z,20.30
2018-08-24T05:22:29.320Z,20.30
2018-08-24T05:24:58.143Z,20.40
2018-08-24T05:27:26.900Z,20.50
2018-08-24T05:29:55.807Z,20.50
2018-08-24T05:32:24.391Z,20.60
2018-08-24T05:34:52.936Z,20.70
2018-08-24T05:37:21.483Z,20.80
2018-08-24T05:39:50.095Z,20.90
2018-08-24T05:42:18.766Z,21.10
2018-08-24T05:44:47.289Z,21.20
2018-08-24T05:47:15.831Z,21.30
2018-08-24T05:49:44.435Z,21.40
2018-08-24T05:52:13.158Z,21.50
2018-08-24T05:54:41.717Z,21.70
2018-08-24T05:57:10.316Z,21.80
2018-08-24T05:59:38.908Z,21.90
2018-08-24T06:02:07.505Z,22.00
2018-08-24T06:04:36.186Z,22.20
2018-08-24T06:07:04.712Z,22.30
2018-08-24T06:09:33.370Z,22.20
2018-08-24T06:12:01.936Z,22.20
2018-08-24T06:14:30.489Z,22.30
2018-08-24T06:17:04.545Z,22.30
2018-08-24T06:19:33.143Z,22.30
2018-08-24T06:22:01.744Z,22.50
2018-08-24T06:24:30.356Z,22.60
2018-08-24T06:26:58.993Z,22.70
2018-08-24T06:29:27.554Z,22.90
2018-08-24T06:31:56.129Z,22.90
2018-08-24T06:34:24.698Z,23.00
2018-08-24T06:36:53.332Z,23.20
2018-08-24T06:39:21.912Z,23.30
2018-08-24T06:41:50.563Z,23.40
2018-08-24T06:44:19.093Z,23.30
2018-08-24T06:46:47.635Z,23.50
2018-08-24T06:49:16.156Z,23.50
2018-08-24T06:51:44.758Z,23.60
2018-08-24T06:54:13.270Z,23.70
2018-08-24T06:56:41.837Z,23.80
2018-08-24T06:59:10.402Z,23.90
2018-08-24T07:01:38.966Z,23.90
2018-08-24T07:04:07.578Z,23.80
2018-08-24T07:06:36.164Z,23.90
2018-08-24T07:09:05.961Z,24.10
2018-08-24T07:11:34.537Z,24.20
2018-08-24T07:14:03.153Z,24.40
2018-08-24T07:16:31.754Z,24.50
2018-08-24T07:19:00.336Z,24.60
2018-08-24T07:21:28.972Z,24.40
2018-08-24T07:23:57.590Z,24.30
2018-08-24T07:26:26.127Z,24.30
2018-08-24T07:28:54.657Z,24.40
2018-08-24T07:31:23.247Z,24.30
2018-08-24T07:33:51.835Z,24.20
2018-08-24T07:36:20.455Z,24.20
2018-08-24T07:38:49.031Z,24.20
2018-08-24T07:41:17.575Z,24.20
2018-08-24T07:43:46.264Z,24.20
2018-08-24T07:46:14.953Z,24.30
2018-08-24T07:48:43.596Z,24.40
2018-08-24T07:51:12.885Z,24.50
2018-08-24T07:53:41.494Z,24.50
2018-08-24T07:56:10.057Z,24.60
2018-08-24T07:58:38.696Z,24.60
2018-08-24T08:01:07.272Z,24.60
2018-08-24T08:03:35.899Z,24.60
2018-08-24T08:06:04.510Z,24.70
2018-08-24T08:08:34.131Z,24.80
2018-08-24T08:11:02.697Z,24.90
2018-08-24T08:13:31.310Z,24.80
2018-08-24T08:15:59.900Z,24.60
2018-08-24T08:18:28.523Z,24.60
2018-08-24T08:20:57.060Z,24.80
2018-08-24T08:23:25.649Z,24.90
2018-08-24T08:25:54.322Z,25.10
2018-08-24T08:28:22.940Z,25.00
2018-08-24T08:30:51.566Z,25.20
2018-08-24T08:33:20.191Z,25.30
2018-08-24T08:35:48.761Z,25.50
2018-08-24T08:38:17.341Z,25.50
2018-08-24T08:40:45.920Z,25.40
2018-08-24T08:43:14.555Z,25.40
2018-08-24T08:45:43.073Z,25.30
2018-08-24T08:48:11.686Z,25.30
2018-08-24T08:50:40.193Z,25.30
2018-08-24T08:53:08.825Z,25.20
2018-08-24T08:55:37.485Z,25.00
2018-08-24T08:58:06.142Z,24.60
2018-08-24T09:00:35.891Z,24.30
2018-08-24T09:03:04.468Z,24.20
2018-08-24T09:05:33.085Z,24.20
2018-08-24T09:08:01.677Z,24.20
2018-08-24T09:10:30.221Z,24.10
2018-08-24T09:12:58.951Z,24.00
2018-08-24T09:15:27.373Z,24.00
2018-08-24T09:18:01.178Z,24.30
2018-08-24T09:20:35.035Z,24.60
2018-08-24T09:23:09.021Z,25.00
2018-08-24T09:25:42.725Z,25.00
2018-08-24T09:28:16.678Z,25.30
2018-08-24T09:30:48.282Z,25.30
2018-08-24T09:33:16.909Z,25.40
2018-08-24T09:35:45.689Z,25.10
2018-08-24T09:38:14.294Z,24.80
2018-08-24T09:40:48.253Z,24.50
2018-08-24T09:43:22.048Z,24.50
2018-08-24T09:45:50.591Z,24.70
2018-08-24T09:48:24.641Z,24.90
2018-08-24T09:50:58.573Z,25.20
2018-08-24T09:53:32.619Z,25.10
2018-08-24T09:56:01.244Z,25.00
2018-08-24T09:58:30.001Z,24.90
2018-08-24T10:01:03.862Z,24.80
2018-08-24T10:03:37.709Z,24.90
2018-08-24T10:06:11.863Z,25.00
2018-08-24T10:08:45.660Z,25.00
2018-08-24T10:11:14.296Z,25.00
2018-08-24T10:13:42.921Z,24.80
2018-08-24T10:16:11.489Z,24.40
2018-08-24T10:18:40.096Z,24.10
2018-08-24T10:21:08.940Z,23.90
2018-08-24T10:23:37.481Z,23.80
2018-08-24T10:26:06.042Z,23.80
2018-08-24T10:28:34.649Z,23.90
2018-08-24T10:31:03.248Z,24.10
2018-08-24T10:33:31.820Z,23.90
2018-08-24T10:36:00.353Z,23.80
2018-08-24T10:38:28.897Z,23.60
2018-08-24T10:40:57.514Z,23.50
2018-08-24T10:43:26.101Z,23.40
2018-08-24T10:45:55.799Z,23.30
2018-08-24T10:48:24.284Z,23.40
2018-08-24T10:50:52.991Z,23.40
2018-08-24T10:53:21.566Z,23.60
2018-08-24T10:55:50.293Z,23.80
2018-08-24T10:58:18.793Z,24.20
2018-08-24T11:00:48.422Z,24.50
2018-08-24T11:03:16.982Z,24.90
2018-08-24T11:05:45.602Z,25.20
2018-08-24T11:08:14.181Z,25.40
2018-08-24T11:10:42.786Z,25.30
2018-08-24T11:13:11.349Z,25.20
2018-08-24T11:15:40.047Z,24.90
2018-08-24T11:18:10.580Z,24.40
2018-08-24T11:20:40.599Z,23.60
2018-08-24T11:23:09.289Z,22.70
2018-08-24T11:25:37.869Z,22.30
2018-08-24T11:28:06.565Z,21.70
2018-08-24T11:30:35.116Z,21.40
2018-08-24T11:33:03.700Z,21.10
2018-08-24T11:35:32.283Z,20.70
2018-08-24T11:38:00.883Z,20.20
2018-08-24T11:40:29.422Z,19.90
2018-08-24T11:42:58.078Z,19.60
2018-08-24T11:45:26.681Z,19.40
2018-08-24T11:47:55.347Z,19.20
2018-08-24T11:50:23.916Z,18.90
2018-08-24T11:52:52.475Z,18.70
2018-08-24T11:55:21.059Z,18.50
2018-08-24T11:57:49.619Z,18.30
2018-08-24T12:00:18.255Z,18.40
2018-08-24T12:02:46.825Z,18.40
2018-08-24T12:05:15.454Z,18.30
2018-08-24T12:07:44.044Z,18.20
2018-08-24T12:10:12.673Z,18.10
2018-08-24T12:12:41.261Z,18.00
2018-08-24T12:15:09.569Z,18.00
2018-08-24T12:17:38.651Z,18.00
2018-08-24T12:20:08.105Z,18.20
2018-08-24T12:22:36.646Z,18.40
2018-08-24T12:25:05.375Z,18.60
2018-08-24T12:27:33.940Z,18.70
2018-08-24T12:30:02.521Z,18.80
2018-08-24T12:32:31.059Z,19.10
2018-08-24T12:34:59.647Z,19.40
2018-08-24T12:37:28.226Z,19.30
2018-08-24T12:39:56.813Z,19.40
2018-08-24T12:42:25.401Z,19.40
2018-08-24T12:44:54.022Z,19.30
2018-08-24T12:47:22.665Z,19.10
2018-08-24T12:49:51.237Z,19.10
2018-08-24T12:52:19.802Z,19.30
2018-08-24T12:54:48.394Z,19.30
2018-08-24T12:57:17.066Z,19.30
2018-08-24T12:59:45.778Z,19.40
2018-08-24T13:02:14.391Z,19.50
2018-08-24T13:04:42.938Z,19.40
2018-08-24T13:07:11.514Z,19.40
2018-08-24T13:09:40.012Z,19.30
2018-08-24T13:12:08.680Z,19.20
2018-08-24T13:14:37.401Z,19.30
2018-08-24T13:17:05.999Z,19.20
2018-08-24T13:19:34.542Z,19.10
2018-08-24T13:22:03.243Z,19.00
2018-08-24T13:24:31.825Z,19.00
2018-08-24T13:27:00.469Z,18.90
2018-08-24T13:29:29.025Z,18.80
2018-08-24T13:31:57.723Z,18.60
2018-08-24T13:34:26.304Z,18.50
2018-08-24T13:36:54.935Z,18.40
2018-08-24T13:39:23.441Z,18.30
2018-08-24T13:41:52.108Z,18.20
2018-08-24T13:44:20.722Z,18.20
2018-08-24T13:46:49.342Z,18.10
2018-08-24T13:49:18.110Z,18.00
2018-08-24T13:51:46.681Z,18.10
2018-08-24T13:54:15.246Z,18.20
2018-08-24T13:56:43.827Z,18.30
2018-08-24T13:59:12.508Z,18.40
2018-08-24T14:04:25.749Z,18.50
2018-08-24T14:06:54.392Z,18.70
2018-08-24T14:09:22.985Z,18.90
2018-08-24T14:11:51.602Z,19.20
2018-08-24T14:14:20.186Z,19.50
2018-08-24T14:16:48.799Z,19.70
2018-08-24T14:19:17.356Z,19.90
2018-08-24T14:21:46.015Z,19.70
2018-08-24T14:24:14.519Z,19.80
2018-08-24T14:26:43.262Z,19.90
2018-08-24T14:29:11.819Z,19.90
2018-08-24T14:31:40.582Z,19.90
2018-08-24T14:34:09.150Z,20.00
2018-08-24T14:36:37.846Z,20.20
2018-08-24T14:39:08.361Z,20.40
2018-08-24T14:41:36.951Z,20.50
2018-08-24T14:44:06.884Z,20.60
2018-08-24T14:46:35.516Z,20.60
2018-08-24T14:49:04.145Z,20.70
2018-08-24T14:51:32.766Z,20.70
2018-08-24T14:54:01.324Z,20.90
2018-08-24T14:56:29.930Z,21.00
2018-08-24T14:58:58.582Z,21.00
2018-08-24T15:01:28.287Z,20.70
2018-08-24T15:03:57.081Z,20.60
2018-08-24T15:06:25.682Z,20.60
2018-08-24T15:08:54.336Z,20.40
2018-08-24T15:11:22.908Z,20.30
2018-08-24T15:13:51.509Z,20.40
2018-08-24T15:16:20.093Z,20.50
2018-08-24T15:18:48.891Z,20.40
2018-08-24T15:21:17.488Z,20.40
2018-08-24T15:23:46.126Z,20.40
2018-08-24T15:26:14.744Z,20.40
2018-08-24T15:28:43.468Z,20.40
2018-08-24T15:31:12.008Z,20.50
2018-08-24T15:33:40.666Z,20.30
2018-08-24T15:36:12.319Z,20.20
2018-08-24T15:38:40.926Z,20.20
2018-08-24T15:41:09.544Z,20.10
2018-08-24T15:43:38.105Z,20.10
2018-08-24T15:46:06.982Z,20.00
2018-08-24T15:48:35.656Z,19.80
2018-08-24T15:51:04.183Z,19.80
2018-08-24T15:53:32.833Z,19.80
2018-08-24T15:56:01.408Z,19.80
2018-08-24T15:58:29.991Z,19.80
2018-08-24T16:00:58.568Z,19.70
2018-08-24T16:03:27.127Z,19.60
2018-08-24T16:05:56.723Z,19.50
2018-08-24T16:08:25.250Z,19.50
2018-08-24T16:10:53.894Z,19.60
2018-08-24T16:13:22.625Z,19.50
2018-08-24T16:15:51.159Z,19.50
2018-08-24T16:18:23.309Z,19.40
2018-08-24T16:20:52.585Z,19.40
2018-08-24T16:23:21.518Z,19.40
2018-08-24T16:25:50.133Z,19.40
2018-08-24T16:28:19.283Z,19.40
2018-08-24T16:30:47.918Z,19.50
2018-08-24T16:33:17.153Z,19.50
2018-08-24T16:35:45.746Z,19.50
2018-08-24T16:38:14.630Z,19.50
2018-08-24T16:40:43.155Z,19.50
2018-08-24T16:43:11.832Z,19.50
2018-08-24T16:45:40.412Z,19.60
2018-08-24T16:48:09.024Z,19.60
2018-08-24T16:50:37.591Z,19.70
2018-08-24T16:53:06.129Z,19.70
2018-08-24T16:55:34.758Z,19.80
2018-08-24T16:58:03.412Z,19.70
2018-08-24T17:00:32.041Z,19.70
2018-08-24T17:03:00.651Z,19.60
2018-08-24T17:05:31.276Z,19.50
2018-08-24T17:08:02.598Z,19.50
2018-08-24T17:10:31.220Z,19.40
2018-08-24T17:12:59.924Z,19.40
2018-08-24T17:15:28.526Z,19.40
2018-08-24T17:17:57.185Z,19.30
2018-08-24T17:20:25.731Z,19.10
2018-08-24T17:22:56.535Z,19.10
2018-08-24T17:25:25.489Z,19.00
2018-08-24T17:27:54.194Z,18.90
2018-08-24T17:30:22.803Z,18.80
2018-08-24T17:32:51.448Z,18.80
2018-08-24T17:35:19.983Z,18.80
2018-08-24T17:37:48.569Z,18.80
2018-08-24T17:40:17.204Z,18.70
2018-08-24T17:42:45.914Z,18.80
2018-08-24T17:45:14.481Z,18.70
2018-08-24T17:47:43.151Z,18.70
2018-08-24T17:50:11.801Z,18.70
2018-08-24T17:52:40.355Z,18.60
2018-08-24T17:55:08.959Z,18.50
2018-08-24T17:57:37.595Z,18.60
2018-08-24T18:00:06.434Z,18.50
2018-08-24T18:02:36.295Z,18.50
2018-08-24T18:05:06.037Z,18.40
2018-08-24T18:07:34.653Z,18.40
2018-08-24T18:10:03.446Z,18.40
2018-08-24T18:12:32.122Z,18.40
2018-08-24T18:15:01.487Z,18.30
2018-08-24T18:17:30.053Z,18.30
2018-08-24T18:19:58.640Z,18.30
2018-08-24T18:22:27.273Z,18.30
2018-08-24T18:24:55.916Z,18.30
2018-08-24T18:27:24.591Z,18.30
2018-08-24T18:29:53.332Z,18.30
2018-08-24T18:32:21.977Z,18.30
2018-08-24T18:34:50.709Z,18.20
2018-08-24T18:37:19.496Z,18.20
2018-08-24T18:39:48.154Z,18.10
2018-08-24T18:42:16.788Z,18.10
2018-08-24T18:44:45.728Z,18.00
2018-08-24T18:47:14.516Z,18.00
2018-08-24T18:49:45.334Z,17.90
2018-08-24T18:52:14.052Z,17.80
2018-08-24T18:54:42.860Z,17.80
2018-08-24T18:57:13.174Z,17.80
2018-08-24T18:59:41.852Z,17.80
2018-08-24T19:02:10.602Z,17.70
2018-08-24T19:04:39.325Z,17.70
2018-08-24T19:07:08.536Z,17.80
2018-08-24T19:09:37.319Z,17.70
2018-08-24T19:12:11.594Z,17.70
2018-08-24T19:14:40.654Z,17.70
2018-08-24T19:17:13.656Z,17.70
2018-08-24T19:19:48.074Z,17.80
2018-08-24T19:22:16.815Z,17.80
2018-08-24T19:24:45.582Z,17.70
2018-08-24T19:27:18.333Z,17.70
2018-08-24T19:29:52.265Z,17.70
2018-08-24T19:32:20.878Z,17.70
2018-08-24T19:34:49.497Z,17.70
2018-08-24T19:37:18.135Z,17.70
2018-08-24T19:39:52.097Z,17.60
2018-08-24T19:42:25.053Z,17.50
2018-08-24T19:44:54.119Z,17.50
2018-08-24T19:47:28.188Z,17.50
2018-08-24T19:49:56.736Z,17.40
2018-08-24T19:52:25.301Z,17.50
2018-08-24T19:54:53.971Z,17.50
2018-08-24T19:57:27.999Z,17.50
2018-08-24T19:59:56.649Z,17.50
2018-08-24T20:02:25.201Z,17.40
2018-08-24T20:04:53.842Z,17.50
2018-08-24T20:07:27.604Z,17.50
2018-08-24T20:10:01.431Z,17.50
2018-08-24T20:12:29.917Z,17.50
2018-08-24T20:15:03.846Z,17.50
2018-08-24T20:17:32.445Z,17.60
2018-08-24T20:20:01.074Z,17.70
2018-08-24T20:22:29.864Z,17.70
2018-08-24T20:24:58.431Z,17.70
2018-08-24T20:27:26.967Z,17.70
2018-08-24T20:29:55.543Z,17.80
2018-08-24T20:32:24.091Z,17.70
2018-08-24T20:34:52.651Z,17.70
2018-08-24T20:37:21.227Z,17.60
2018-08-24T20:39:49.887Z,17.70
2018-08-24T20:42:18.448Z,17.60
2018-08-24T20:44:47.024Z,17.50
2018-08-24T20:47:15.676Z,17.50
2018-08-24T20:49:44.263Z,17.50
2018-08-24T20:52:12.892Z,17.50
2018-08-24T20:54:42.560Z,17.50
2018-08-24T20:57:11.154Z,17.40
2018-08-24T20:59:39.895Z,17.30
2018-08-24T21:02:08.982Z,17.10
2018-08-24T21:04:37.535Z,17.10
2018-08-24T21:07:06.450Z,17.00
2018-08-24T21:09:34.999Z,17.00
2018-08-24T21:12:03.556Z,16.90
2018-08-24T21:14:32.193Z,16.90
2018-08-24T21:17:00.835Z,17.00
2018-08-24T21:19:29.808Z,17.00
2018-08-24T21:21:58.352Z,17.20
2018-08-24T21:24:27.058Z,17.20
2018-08-24T21:26:55.669Z,17.30
2018-08-24T21:29:24.261Z,17.40
2018-08-24T21:31:52.829Z,17.40
2018-08-24T21:34:21.460Z,17.50
2018-08-24T21:36:50.051Z,17.50
2018-08-24T21:39:18.640Z,17.60
2018-08-24T21:41:47.193Z,17.60
2018-08-24T21:44:16.758Z,17.60
2018-08-24T21:46:45.323Z,17.50
2018-08-24T21:49:13.910Z,17.50
2018-08-24T21:51:42.491Z,17.50
2018-08-24T21:54:11.066Z,17.50
2018-08-24T21:56:39.585Z,17.50
2018-08-24T21:59:08.233Z,17.60
2018-08-24T22:01:36.916Z,17.70
2018-08-24T22:04:05.454Z,17.70
2018-08-24T22:06:34.036Z,17.70
2018-08-24T22:09:02.671Z,17.80
2018-08-24T22:11:31.274Z,17.80
2018-08-24T22:13:59.872Z,17.90
2018-08-24T22:16:28.422Z,17.90
2018-08-24T22:18:57.097Z,17.80
2018-08-24T22:21:25.636Z,17.80
2018-08-24T22:23:54.355Z,17.80
2018-08-24T22:26:22.937Z,17.80
2018-08-24T22:28:51.610Z,17.80
2018-08-24T22:31:20.205Z,17.70
2018-08-24T22:33:48.767Z,17.60
2018-08-24T22:36:17.288Z,17.60
2018-08-24T22:38:45.974Z,17.50
2018-08-24T22:41:14.499Z,17.50
2018-08-24T22:43:43.072Z,17.50
2018-08-24T22:46:11.642Z,17.60
2018-08-24T22:48:40.253Z,17.60
2018-08-24T22:51:08.863Z,17.50
2018-08-24T22:53:37.415Z,17.40
2018-08-24T22:56:06.374Z,17.50
2018-08-24T22:58:34.941Z,17.50
2018-08-24T23:01:03.536Z,17.50
2018-08-24T23:03:32.132Z,17.50
2018-08-24T23:06:00.756Z,17.50
2018-08-24T23:08:29.317Z,17.50
2018-08-24T23:10:57.903Z,17.40
2018-08-24T23:13:26.526Z,17.30
2018-08-24T23:15:55.333Z,17.40
2018-08-24T23:18:24.013Z,17.40
2018-08-24T23:20:52.623Z,17.30
2018-08-24T23:23:21.193Z,17.30
2018-08-24T23:25:49.782Z,17.30
2018-08-24T23:28:18.355Z,17.20
2018-08-24T23:30:46.986Z,17.20
2018-08-24T23:33:15.585Z,17.10
2018-08-24T23:35:44.203Z,17.10
2018-08-24T23:38:12.813Z,17.00
2018-08-24T23:40:41.377Z,16.90
2018-08-24T23:43:09.946Z,16.70
2018-08-24T23:45:39.596Z,16.50
2018-08-24T23:48:08.161Z,16.20
2018-08-24T23:50:36.774Z,16.10
2018-08-24T23:53:05.339Z,16.00
2018-08-24T23:55:34.021Z,15.80
2018-08-24T23:58:02.645Z,15.70
